createdAt,value
2022-11-09T00:00:44.378Z,59.70
2022-11-09T00:03:46.246Z,59.40
2022-11-09T00:06:47.747Z,59.50
2022-11-09T00:09:49.337Z,59.30
2022-11-09T00:12:51.490Z,59.00
2022-11-09T00:15:52.947Z,59.40
2022-11-09T00:18:55.208Z,59.10
2022-11-09T00:21:57.309Z,59.20
2022-11-09T00:24:58.871Z,59.20
2022-11-09T00:28:00.851Z,59.30
2022-11-09T00:31:05.013Z,59.40
2022-11-09T00:34:06.764Z,59.10
2022-11-09T00:37:08.878Z,58.90
2022-11-09T00:40:13.206Z,59.00
2022-11-09T00:43:16.168Z,59.00
2022-11-09T00:46:21.299Z,59.00
2022-11-09T00:49:28.454Z,58.50
2022-11-09T00:52:30.223Z,59.20
2022-11-09T00:55:31.514Z,59.00
2022-11-09T00:58:35.602Z,59.40
2022-11-09T01:01:37.271Z,59.20
2022-11-09T01:04:39.981Z,59.30
2022-11-09T01:07:41.704Z,59.00
2022-11-09T01:10:44.896Z,58.90
2022-11-09T01:13:47.230Z,58.90
2022-11-09T01:16:49.061Z,59.20
2022-11-09T01:19:50.957Z,58.90
2022-11-09T01:22:53.613Z,59.10
2022-11-09T01:25:58.095Z,59.00
2022-11-09T01:29:00.538Z,59.00
2022-11-09T01:32:03.502Z,59.30
2022-11-09T01:35:06.960Z,58.90
2022-11-09T01:38:09.599Z,58.60
2022-11-09T01:41:17.514Z,59.20
2022-11-09T01:44:20.514Z,59.10
2022-11-09T01:47:25.452Z,59.00
2022-11-09T01:50:35.868Z,59.00
2022-11-09T01:53:45.302Z,59.20
2022-11-09T01:56:50.404Z,59.30
2022-11-09T01:59:56.521Z,59.20
2022-11-09T02:03:01.943Z,59.50
2022-11-09T02:06:06.182Z,59.10
2022-11-09T02:09:14.514Z,59.40
2022-11-09T02:12:17.721Z,59.00
2022-11-09T02:15:21.363Z,59.00
2022-11-09T02:18:23.124Z,59.40
2022-11-09T02:21:26.561Z,59.30
2022-11-09T02:24:30.315Z,59.70
2022-11-09T02:27:32.126Z,59.30
2022-11-09T02:30:35.383Z,59.40
2022-11-09T02:33:43.808Z,59.30
2022-11-09T02:36:49.312Z,59.30
2022-11-09T02:39:56.911Z,59.20
2022-11-09T02:42:59.911Z,59.30
2022-11-09T02:46:01.694Z,59.30
2022-11-09T02:49:05.003Z,59.40
2022-11-09T02:52:07.724Z,59.60
2022-11-09T02:55:10.294Z,59.20
2022-11-09T02:58:13.464Z,58.80
2022-11-09T03:01:19.770Z,59.60
2022-11-09T03:04:21.929Z,59.30
2022-11-09T03:07:25.918Z,59.40
2022-11-09T03:10:27.817Z,59.40
2022-11-09T03:13:30.275Z,59.50
2022-11-09T03:16:32.511Z,59.60
2022-11-09T03:19:34.022Z,59.40
2022-11-09T03:22:36.010Z,59.30
2022-11-09T03:25:38.349Z,59.70
2022-11-09T03:28:40.300Z,58.80
2022-11-09T03:31:42.189Z,59.50
2022-11-09T03:34:45.435Z,59.80
2022-11-09T03:37:49.620Z,59.50
2022-11-09T03:40:51.202Z,59.50
2022-11-09T03:43:53.262Z,59.30
2022-11-09T03:46:54.795Z,59.30
2022-11-09T03:49:56.072Z,59.50
2022-11-09T03:52:58.839Z,59.70
2022-11-09T03:56:00.266Z,59.20
2022-11-09T03:59:01.710Z,59.20
2022-11-09T04:02:03.708Z,59.40
2022-11-09T04:05:07.358Z,59.10
2022-11-09T04:08:09.867Z,59.20
2022-11-09T04:11:12.999Z,59.30
2022-11-09T04:14:14.392Z,59.20
2022-11-09T04:17:41.479Z,59.20
2022-11-09T04:20:43.804Z,59.10
2022-11-09T04:23:47.837Z,59.00
2022-11-09T04:26:49.403Z,59.20
2022-11-09T04:29:50.828Z,59.30
2022-11-09T04:32:52.236Z,60.10
2022-11-09T04:35:53.551Z,59.90
2022-11-09T04:38:55.586Z,59.90
2022-11-09T04:41:57.007Z,59.50
2022-11-09T04:44:58.393Z,59.80
2022-11-09T04:48:00.945Z,59.40
2022-11-09T04:51:04.616Z,59.50
2022-11-09T04:54:06.782Z,59.30
2022-11-09T04:57:08.139Z,59.50
2022-11-09T05:00:10.498Z,59.70
2022-11-09T05:03:37.784Z,59.40
2022-11-09T05:06:39.313Z,59.00
2022-11-09T05:09:41.400Z,59.50
2022-11-09T05:12:45.894Z,59.30
2022-11-09T05:15:47.530Z,59.60
2022-11-09T05:18:49.750Z,59.20
2022-11-09T05:21:51.418Z,59.10
2022-11-09T05:24:53.251Z,59.10
2022-11-09T05:27:54.677Z,59.40
2022-11-09T05:30:56.203Z,59.10
2022-11-09T05:33:58.579Z,59.20
2022-11-09T05:37:03.432Z,59.10
2022-11-09T05:40:07.128Z,59.30
2022-11-09T05:43:08.554Z,59.10
2022-11-09T05:46:10.632Z,59.30
2022-11-09T05:49:36.819Z,59.40
2022-11-09T05:52:39.186Z,59.50
2022-11-09T05:56:07.573Z,58.90
2022-11-09T05:59:09.195Z,59.60
2022-11-09T06:02:10.782Z,59.40
2022-11-09T06:05:12.581Z,59.30
2022-11-09T06:08:15.122Z,58.90
2022-11-09T06:11:23.601Z,59.30
2022-11-09T06:14:26.138Z,59.40
2022-11-09T06:17:27.575Z,59.10
2022-11-09T06:20:28.950Z,59.20
2022-11-09T06:23:31.138Z,60.00
2022-11-09T06:26:33.309Z,59.40
2022-11-09T06:29:34.736Z,59.50
2022-11-09T06:32:36.114Z,59.50
2022-11-09T06:35:37.445Z,59.80
2022-11-09T06:38:39.564Z,59.50
2022-11-09T06:41:46.240Z,59.40
2022-11-09T06:44:48.998Z,59.30
2022-11-09T06:47:50.288Z,59.80
2022-11-09T06:50:51.786Z,59.90
2022-11-09T06:53:53.374Z,59.60
2022-11-09T06:56:55.604Z,59.90
2022-11-09T06:59:59.456Z,59.80
2022-11-09T07:03:02.196Z,59.60
2022-11-09T07:06:05.535Z,59.60
2022-11-09T07:09:07.033Z,59.40
2022-11-09T07:12:09.301Z,59.40
2022-11-09T07:15:12.012Z,59.60
2022-11-09T07:18:13.475Z,59.30
2022-11-09T07:21:15.082Z,59.50
2022-11-09T07:24:16.758Z,59.70
2022-11-09T07:27:21.382Z,59.30
2022-11-09T07:30:26.380Z,59.70
2022-11-09T07:33:29.714Z,59.40
2022-11-09T07:36:31.402Z,60.00
2022-11-09T07:39:33.505Z,58.90
2022-11-09T07:42:35.542Z,59.40
2022-11-09T07:45:37.173Z,59.40
2022-11-09T07:48:38.651Z,59.60
2022-11-09T07:51:40.038Z,59.30
2022-11-09T07:54:41.723Z,59.40
2022-11-09T07:57:43.899Z,59.30
2022-11-09T08:00:45.379Z,59.40
2022-11-09T08:03:46.650Z,59.50
2022-11-09T08:06:48.182Z,59.70
2022-11-09T08:09:49.548Z,59.90
2022-11-09T08:12:54.366Z,55.70
2022-11-09T08:16:00.845Z,55.70
2022-11-09T08:19:02.500Z,55.20
2022-11-09T08:22:04.157Z,55.10
2022-11-09T08:25:06.378Z,55.40
2022-11-09T08:28:14.346Z,55.10
2022-11-09T08:31:16.417Z,55.30
2022-11-09T08:34:17.795Z,55.40
2022-11-09T08:37:19.965Z,55.60
2022-11-09T08:40:23.512Z,55.30
2022-11-09T08:43:26.072Z,55.90
2022-11-09T08:46:27.581Z,55.20
2022-11-09T08:49:28.997Z,55.10
2022-11-09T08:52:30.868Z,55.40
2022-11-09T08:55:32.613Z,55.30
2022-11-09T08:58:35.445Z,54.60
2022-11-09T09:01:36.980Z,55.20
2022-11-09T09:04:38.527Z,54.90
2022-11-09T09:07:42.156Z,55.00
2022-11-09T09:10:43.707Z,54.60
2022-11-09T09:13:47.669Z,54.80
2022-11-09T09:16:49.434Z,53.90
2022-11-09T09:19:52.243Z,54.90
2022-11-09T09:22:54.421Z,53.70
2022-11-09T09:25:59.114Z,54.90
2022-11-09T09:29:01.394Z,53.90
2022-11-09T09:32:06.427Z,55.10
2022-11-09T09:35:14.087Z,54.30
2022-11-09T09:38:21.851Z,55.00
2022-11-09T09:41:40.832Z,53.60
2022-11-09T09:44:56.863Z,55.20
2022-11-09T09:48:05.939Z,55.00
2022-11-09T09:51:15.582Z,55.00
2022-11-09T09:54:23.289Z,55.00
2022-11-09T09:57:29.997Z,55.10
2022-11-09T10:00:37.957Z,55.10
2022-11-09T10:03:46.062Z,55.20
2022-11-09T10:06:59.768Z,54.20
2022-11-09T10:10:19.475Z,55.20
2022-11-09T10:13:37.154Z,55.10
2022-11-09T10:16:54.662Z,55.30
2022-11-09T10:20:10.801Z,55.50
2022-11-09T10:23:37.914Z,55.30
2022-11-09T10:26:43.920Z,55.40
2022-11-09T10:29:54.073Z,55.40
2022-11-09T10:33:13.944Z,54.30
2022-11-09T10:36:27.941Z,55.40
2022-11-09T10:39:40.495Z,55.10
2022-11-09T10:43:02.941Z,55.60
2022-11-09T10:46:20.539Z,55.50
2022-11-09T10:49:42.465Z,55.20
2022-11-09T10:53:10.215Z,55.30
2022-11-09T10:56:32.921Z,55.40
2022-11-09T10:59:57.991Z,55.30
2022-11-09T11:03:20.731Z,54.80
2022-11-09T11:06:39.850Z,54.50
2022-11-09T11:10:10.141Z,54.60
2022-11-09T11:13:27.260Z,54.70
2022-11-09T11:16:52.018Z,54.50
2022-11-09T11:20:28.466Z,53.40
2022-11-09T11:24:14.609Z,54.40
2022-11-09T11:27:43.125Z,54.20
2022-11-09T11:30:57.687Z,54.20
2022-11-09T11:34:32.374Z,53.90
2022-11-09T11:38:09.219Z,54.30
2022-11-09T11:41:41.180Z,53.80
2022-11-09T11:45:39.012Z,53.80
2022-11-09T11:49:14.547Z,53.90
2022-11-09T11:52:38.481Z,53.20
2022-11-09T11:56:18.295Z,53.50
2022-11-09T11:59:53.095Z,53.30
2022-11-09T12:03:28.534Z,53.40
2022-11-09T12:07:08.855Z,53.00
2022-11-09T12:10:44.238Z,53.10
2022-11-09T12:14:09.321Z,53.30
2022-11-09T12:17:40.813Z,53.10
2022-11-09T12:21:10.712Z,53.10
2022-11-09T12:24:35.240Z,52.70
2022-11-09T12:28:02.969Z,52.70
2022-11-09T12:31:34.633Z,52.50
2022-11-09T12:34:56.340Z,52.60
2022-11-09T12:38:15.101Z,52.40
2022-11-09T12:41:30.727Z,52.40
2022-11-09T12:45:04.451Z,52.40
2022-11-09T12:48:24.738Z,52.00
2022-11-09T12:52:05.547Z,52.00
2022-11-09T12:55:26.426Z,50.60
2022-11-09T12:58:39.039Z,52.00
2022-11-09T13:02:00.885Z,52.00
2022-11-09T13:05:34.652Z,51.80
2022-11-09T13:09:04.338Z,51.70
2022-11-09T13:12:26.245Z,51.60
2022-11-09T13:15:39.021Z,51.60
2022-11-09T13:18:58.349Z,51.50
2022-11-09T13:22:47.282Z,51.30
2022-11-09T13:26:22.081Z,50.60
2022-11-09T13:29:52.314Z,50.40
2022-11-09T13:33:17.885Z,50.10
2022-11-09T13:36:38.001Z,50.10
2022-11-09T13:39:57.927Z,50.10
2022-11-09T13:43:24.097Z,50.10
2022-11-09T13:46:39.127Z,49.80
2022-11-09T13:49:58.005Z,49.70
2022-11-09T13:53:47.877Z,49.40
2022-11-09T13:57:10.134Z,49.30
2022-11-09T14:00:28.596Z,49.60
2022-11-09T14:03:51.059Z,49.20
2022-11-09T14:07:16.521Z,49.40
2022-11-09T14:10:54.547Z,49.30
2022-11-09T14:14:33.755Z,48.70
2022-11-09T14:17:59.642Z,48.40
2022-11-09T14:21:36.797Z,49.00
2022-11-09T14:24:57.804Z,49.20
2022-11-09T14:28:22.619Z,49.10
2022-11-09T14:31:45.526Z,48.60
2022-11-09T14:35:17.814Z,48.80
2022-11-09T14:38:47.691Z,48.50
2022-11-09T14:42:12.189Z,48.80
2022-11-09T14:45:28.443Z,48.60
2022-11-09T14:48:51.449Z,48.50
2022-11-09T14:52:12.228Z,48.40
2022-11-09T14:55:28.817Z,48.20
2022-11-09T14:58:49.375Z,48.10
2022-11-09T15:02:12.356Z,48.00
2022-11-09T15:05:31.785Z,47.80
2022-11-09T15:08:55.415Z,47.80
2022-11-09T15:12:13.507Z,47.80
2022-11-09T15:15:30.159Z,47.80
2022-11-09T15:18:48.533Z,47.80
2022-11-09T15:22:37.310Z,47.90
2022-11-09T15:25:58.423Z,47.90
2022-11-09T15:29:28.965Z,48.00
2022-11-09T15:32:48.074Z,48.40
2022-11-09T15:36:24.984Z,48.50
2022-11-09T15:39:38.154Z,48.10
2022-11-09T15:42:58.496Z,48.50
2022-11-09T15:46:20.479Z,48.60
2022-11-09T15:49:37.858Z,48.70
2022-11-09T15:52:57.828Z,48.70
2022-11-09T15:56:20.990Z,48.50
2022-11-09T15:59:38.503Z,48.90
2022-11-09T16:02:58.017Z,48.60
2022-11-09T16:06:21.446Z,49.00
2022-11-09T16:09:38.699Z,49.00
2022-11-09T16:12:57.903Z,48.90
2022-11-09T16:16:18.509Z,49.00
2022-11-09T16:19:38.838Z,49.10
2022-11-09T16:22:58.255Z,49.10
2022-11-09T16:26:19.583Z,49.10
2022-11-09T16:29:40.008Z,49.60
2022-11-09T16:32:58.464Z,49.20
2022-11-09T16:36:21.185Z,49.30
2022-11-09T16:39:38.626Z,49.50
2022-11-09T16:42:59.554Z,49.60
2022-11-09T16:46:25.773Z,49.30
2022-11-09T16:49:39.033Z,49.50
2022-11-09T16:52:58.690Z,49.50
2022-11-09T16:56:18.366Z,49.60
2022-11-09T16:59:38.948Z,49.10
2022-11-09T17:03:02.075Z,49.30
2022-11-09T17:06:19.007Z,49.00
2022-11-09T17:09:38.338Z,48.90
2022-11-09T17:12:58.376Z,49.00
2022-11-09T17:16:19.627Z,49.00
2022-11-09T17:19:38.543Z,54.00
2022-11-09T17:22:59.158Z,53.80
2022-11-09T17:26:19.416Z,54.00
2022-11-09T17:29:39.016Z,53.80
2022-11-09T17:32:58.644Z,53.80
2022-11-09T17:36:35.107Z,54.30
2022-11-09T17:39:59.006Z,53.90
2022-11-09T17:43:18.390Z,53.90
2022-11-09T17:46:40.973Z,53.50
2022-11-09T17:49:58.297Z,52.30
2022-11-09T17:53:20.654Z,54.00
2022-11-09T17:56:39.151Z,52.10
2022-11-09T17:59:58.850Z,53.90
2022-11-09T18:03:20.923Z,53.60
2022-11-09T18:06:39.010Z,54.20
2022-11-09T18:09:58.523Z,54.20
2022-11-09T18:13:18.934Z,54.40
2022-11-09T18:16:38.445Z,54.40
2022-11-09T18:19:58.557Z,54.50
2022-11-09T18:23:18.632Z,53.80
2022-11-09T18:26:38.319Z,54.60
2022-11-09T18:30:00.976Z,54.60
2022-11-09T18:33:18.906Z,54.60
2022-11-09T18:36:40.398Z,53.10
2022-11-09T18:39:58.327Z,54.60
2022-11-09T18:43:18.806Z,54.50
2022-11-09T18:46:39.272Z,54.60
2022-11-09T18:49:58.723Z,53.00
2022-11-09T18:53:19.879Z,55.00
2022-11-09T18:56:38.593Z,55.50
2022-11-09T18:59:58.394Z,55.00
2022-11-09T19:03:19.257Z,54.60
2022-11-09T19:06:38.380Z,55.80
2022-11-09T19:09:59.339Z,54.80
2022-11-09T19:13:18.427Z,55.00
2022-11-09T19:16:38.762Z,54.30
2022-11-09T19:19:58.974Z,55.40
2022-11-09T19:23:18.512Z,54.80
2022-11-09T19:26:38.997Z,55.30
2022-11-09T19:29:59.195Z,55.30
2022-11-09T19:33:19.185Z,55.10
2022-11-09T19:36:39.193Z,53.60
2022-11-09T19:39:58.345Z,55.30
2022-11-09T19:43:19.134Z,55.40
2022-11-09T19:46:38.834Z,55.80
2022-11-09T19:49:58.454Z,55.50
2022-11-09T19:53:19.185Z,55.60
2022-11-09T19:56:38.482Z,54.90
2022-11-09T19:59:58.595Z,55.70
2022-11-09T20:03:18.542Z,55.20
2022-11-09T20:06:39.703Z,55.70
2022-11-09T20:09:59.764Z,55.60
2022-11-09T20:13:18.846Z,55.70
2022-11-09T20:16:39.560Z,54.20
2022-11-09T20:19:58.378Z,55.50
2022-11-09T20:23:21.626Z,55.90
2022-11-09T20:26:40.031Z,55.70
2022-11-09T20:29:58.726Z,55.70
2022-11-09T20:33:19.089Z,55.90
2022-11-09T20:36:38.411Z,55.10
2022-11-09T20:39:58.410Z,56.10
2022-11-09T20:43:19.074Z,55.70
2022-11-09T20:46:38.350Z,55.70
2022-11-09T20:49:58.391Z,55.40
2022-11-09T20:53:18.428Z,55.40
2022-11-09T20:56:38.414Z,55.40
2022-11-09T20:59:59.562Z,55.50
2022-11-09T21:03:18.517Z,54.90
2022-11-09T21:06:38.827Z,55.10
2022-11-09T21:09:58.547Z,55.20
2022-11-09T21:13:18.584Z,55.20
2022-11-09T21:16:39.613Z,55.00
2022-11-09T21:19:58.389Z,55.00
2022-11-09T21:23:33.181Z,54.90
2022-11-09T21:27:03.233Z,55.00
2022-11-09T21:30:18.668Z,55.30
2022-11-09T21:33:39.318Z,55.10
2022-11-09T21:36:58.544Z,54.50
2022-11-09T21:40:18.413Z,55.00
2022-11-09T21:43:38.609Z,55.00
2022-11-09T21:46:59.023Z,54.90
2022-11-09T21:50:19.047Z,55.00
2022-11-09T21:53:38.417Z,54.60
2022-11-09T21:56:58.931Z,55.00
2022-11-09T22:00:19.288Z,55.00
2022-11-09T22:03:40.641Z,54.70
2022-11-09T22:06:59.202Z,54.90
2022-11-09T22:10:18.573Z,54.60
2022-11-09T22:13:53.965Z,55.40
2022-11-09T22:17:09.122Z,54.80
2022-11-09T22:20:43.135Z,54.90
2022-11-09T22:23:59.452Z,54.80
2022-11-09T22:27:18.526Z,54.30
2022-11-09T22:30:38.562Z,54.00
2022-11-09T22:33:58.576Z,54.30
2022-11-09T22:37:18.665Z,54.40
2022-11-09T22:40:39.112Z,53.70
2022-11-09T22:43:59.278Z,54.00
2022-11-09T22:47:18.476Z,54.00
2022-11-09T22:50:38.439Z,54.00
2022-11-09T22:53:58.490Z,54.00
2022-11-09T22:57:19.034Z,53.70
2022-11-09T23:00:38.423Z,53.60
2022-11-09T23:03:58.619Z,53.80
2022-11-09T23:07:18.558Z,53.80
2022-11-09T23:10:38.695Z,53.50
2022-11-09T23:13:59.280Z,53.80
2022-11-09T23:17:33.248Z,53.80
2022-11-09T23:20:48.571Z,53.70
2022-11-09T23:24:29.008Z,53.50
2022-11-09T23:27:50.055Z,53.50
2022-11-09T23:31:13.024Z,53.70
2022-11-09T23:34:28.674Z,53.40
2022-11-09T23:37:57.071Z,54.10
2022-11-09T23:41:10.614Z,53.40
2022-11-09T23:44:28.566Z,53.10
2022-11-09T23:47:49.134Z,53.40
2022-11-09T23:51:09.210Z,53.70
2022-11-09T23:54:28.458Z,53.30
2022-11-09T23:57:48.539Z,53.70
